sensor_id;sensor_type;location;lat;lon;timestamp;temperature;humidity
4054;DHT22;2042;47.956;9.222;2023-11-18T00:00:37;2.60;40.80
4054;DHT22;2042;47.956;9.222;2023-11-18T00:03:03;2.50;40.60
4054;DHT22;2042;47.956;9.222;2023-11-18T00:05:28;2.40;40.20
4054;DHT22;2042;47.956;9.222;2023-11-18T00:07:54;2.20;39.70
4054;DHT22;2042;47.956;9.222;2023-11-18T00:10:21;2.10;39.30
4054;DHT22;2042;47.956;9.222;2023-11-18T00:12:46;2.00;39.10
4054;DHT22;2042;47.956;9.222;2023-11-18T00:15:12;1.90;39.10
4054;DHT22;2042;47.956;9.222;2023-11-18T00:17:38;1.90;39.20
4054;DHT22;2042;47.956;9.222;2023-11-18T00:20:04;2.00;39.60
4054;DHT22;2042;47.956;9.222;2023-11-18T00:22:35;2.10;40.00
4054;DHT22;2042;47.956;9.222;2023-11-18T00:25:02;2.20;40.30
4054;DHT22;2042;47.956;9.222;2023-11-18T00:27:30;2.40;40.50
4054;DHT22;2042;47.956;9.222;2023-11-18T00:29:56;2.50;40.80
4054;DHT22;2042;47.956;9.222;2023-11-18T00:32:22;2.50;40.80
4054;DHT22;2042;47.956;9.222;2023-11-18T00:34:47;2.60;40.90
4054;DHT22;2042;47.956;9.222;2023-11-18T00:37:13;2.60;40.90
4054;DHT22;2042;47.956;9.222;2023-11-18T00:39:39;2.50;40.80
4054;DHT22;2042;47.956;9.222;2023-11-18T00:42:05;2.50;40.70
4054;DHT22;2042;47.956;9.222;2023-11-18T00:44:31;2.40;40.40
4054;DHT22;2042;47.956;9.222;2023-11-18T00:46:56;2.40;40.40
4054;DHT22;2042;47.956;9.222;2023-11-18T00:49:23;2.30;40.30
4054;DHT22;2042;47.956;9.222;2023-11-18T00:51:49;2.30;40.20
4054;DHT22;2042;47.956;9.222;2023-11-18T00:54:14;2.30;40.20
4054;DHT22;2042;47.956;9.222;2023-11-18T00:56:40;2.30;40.20
4054;DHT22;2042;47.956;9.222;2023-11-18T00:59:06;2.20;40.00
4054;DHT22;2042;47.956;9.222;2023-11-18T01:01:32;2.10;39.70
4054;DHT22;2042;47.956;9.222;2023-11-18T01:03:57;2.10;39.60
4054;DHT22;2042;47.956;9.222;2023-11-18T01:06:25;2.10;39.60
4054;DHT22;2042;47.956;9.222;2023-11-18T01:08:51;2.00;39.50
4054;DHT22;2042;47.956;9.222;2023-11-18T01:11:18;2.00;39.60
4054;DHT22;2042;47.956;9.222;2023-11-18T01:13:51;2.00;39.50
4054;DHT22;2042;47.956;9.222;2023-11-18T01:16:17;2.00;39.40
4054;DHT22;2042;47.956;9.222;2023-11-18T01:18:43;1.90;39.20
4054;DHT22;2042;47.956;9.222;2023-11-18T01:21:09;1.90;39.10
4054;DHT22;2042;47.956;9.222;2023-11-18T01:23:35;1.80;38.90
4054;DHT22;2042;47.956;9.222;2023-11-18T01:26:01;1.70;38.80
4054;DHT22;2042;47.956;9.222;2023-11-18T01:28:36;1.70;38.90
4054;DHT22;2042;47.956;9.222;2023-11-18T01:31:06;1.70;39.00
4054;DHT22;2042;47.956;9.222;2023-11-18T01:33:38;1.70;39.10
4054;DHT22;2042;47.956;9.222;2023-11-18T01:36:08;1.80;39.30
4054;DHT22;2042;47.956;9.222;2023-11-18T01:38:37;1.80;39.40
4054;DHT22;2042;47.956;9.222;2023-11-18T01:41:04;1.80;39.50
4054;DHT22;2042;47.956;9.222;2023-11-18T01:43:30;1.80;39.40
4054;DHT22;2042;47.956;9.222;2023-11-18T01:45:58;1.80;39.30
4054;DHT22;2042;47.956;9.222;2023-11-18T01:48:28;1.80;39.20
4054;DHT22;2042;47.956;9.222;2023-11-18T01:50:56;1.80;39.20
4054;DHT22;2042;47.956;9.222;2023-11-18T01:53:23;1.70;39.00
4054;DHT22;2042;47.956;9.222;2023-11-18T01:55:50;1.70;39.00
4054;DHT22;2042;47.956;9.222;2023-11-18T01:58:16;1.60;38.70
4054;DHT22;2042;47.956;9.222;2023-11-18T02:00:45;1.60;38.60
4054;DHT22;2042;47.956;9.222;2023-11-18T02:03:12;1.50;38.50
4054;DHT22;2042;47.956;9.222;2023-11-18T02:05:38;1.50;38.40
4054;DHT22;2042;47.956;9.222;2023-11-18T02:08:05;1.40;38.00
4054;DHT22;2042;47.956;9.222;2023-11-18T02:10:36;1.40;37.90
4054;DHT22;2042;47.956;9.222;2023-11-18T02:13:18;1.40;37.90
4054;DHT22;2042;47.956;9.222;2023-11-18T02:16:01;1.40;38.00
4054;DHT22;2042;47.956;9.222;2023-11-18T02:18:30;1.30;37.70
4054;DHT22;2042;47.956;9.222;2023-11-18T02:20:57;1.30;37.40
4054;DHT22;2042;47.956;9.222;2023-11-18T02:23:26;1.20;37.30
4054;DHT22;2042;47.956;9.222;2023-11-18T02:25:52;1.10;36.70
4054;DHT22;2042;47.956;9.222;2023-11-18T02:28:18;1.10;36.30
4054;DHT22;2042;47.956;9.222;2023-11-18T02:30:45;1.00;33.70
4054;DHT22;2042;47.956;9.222;2023-11-18T02:33:30;0.80;33.40
4054;DHT22;2042;47.956;9.222;2023-11-18T02:36:21;0.70;33.10
4054;DHT22;2042;47.956;9.222;2023-11-18T02:38:50;0.40;32.70
4054;DHT22;2042;47.956;9.222;2023-11-18T02:41:20;0.40;32.80
4054;DHT22;2042;47.956;9.222;2023-11-18T02:43:47;0.30;32.70
4054;DHT22;2042;47.956;9.222;2023-11-18T02:46:14;0.20;32.60
4054;DHT22;2042;47.956;9.222;2023-11-18T02:48:42;0.20;32.60
4054;DHT22;2042;47.956;9.222;2023-11-18T02:51:09;0.10;32.50
4054;DHT22;2042;47.956;9.222;2023-11-18T02:53:37;0.20;32.80
4054;DHT22;2042;47.956;9.222;2023-11-18T02:56:03;0.20;32.80
4054;DHT22;2042;47.956;9.222;2023-11-18T02:58:30;0.30;32.90
4054;DHT22;2042;47.956;9.222;2023-11-18T03:00:56;0.30;32.90
4054;DHT22;2042;47.956;9.222;2023-11-18T03:03:25;0.30;32.90
4054;DHT22;2042;47.956;9.222;2023-11-18T03:05:52;0.30;33.00
4054;DHT22;2042;47.956;9.222;2023-11-18T03:08:18;0.40;33.10
4054;DHT22;2042;47.956;9.222;2023-11-18T03:10:44;0.60;33.40
4054;DHT22;2042;47.956;9.222;2023-11-18T03:13:10;0.70;33.50
4054;DHT22;2042;47.956;9.222;2023-11-18T03:15:38;0.80;33.60
4054;DHT22;2042;47.956;9.222;2023-11-18T03:18:03;0.90;34.40
4054;DHT22;2042;47.956;9.222;2023-11-18T03:20:32;1.00;33.90
4054;DHT22;2042;47.956;9.222;2023-11-18T03:23:00;1.10;34.00
4054;DHT22;2042;47.956;9.222;2023-11-18T03:25:28;1.20;34.20
4054;DHT22;2042;47.956;9.222;2023-11-18T03:27:54;1.30;34.40
4054;DHT22;2042;47.956;9.222;2023-11-18T03:30:20;1.30;34.50
4054;DHT22;2042;47.956;9.222;2023-11-18T03:32:45;1.40;34.60
4054;DHT22;2042;47.956;9.222;2023-11-18T03:35:11;1.50;34.80
4054;DHT22;2042;47.956;9.222;2023-11-18T03:37:37;1.50;34.90
4054;DHT22;2042;47.956;9.222;2023-11-18T03:40:06;1.60;35.10
4054;DHT22;2042;47.956;9.222;2023-11-18T03:42:32;1.60;35.10
4054;DHT22;2042;47.956;9.222;2023-11-18T03:44:57;1.70;35.30
4054;DHT22;2042;47.956;9.222;2023-11-18T03:47:23;1.80;35.50
4054;DHT22;2042;47.956;9.222;2023-11-18T03:49:50;1.80;35.60
4054;DHT22;2042;47.956;9.222;2023-11-18T03:52:16;1.80;35.60
4054;DHT22;2042;47.956;9.222;2023-11-18T03:54:42;1.90;35.70
4054;DHT22;2042;47.956;9.222;2023-11-18T03:57:08;1.90;35.80
4054;DHT22;2042;47.956;9.222;2023-11-18T03:59:33;2.00;35.90
4054;DHT22;2042;47.956;9.222;2023-11-18T04:01:59;2.00;36.00
4054;DHT22;2042;47.956;9.222;2023-11-18T04:04:25;2.10;36.10
4054;DHT22;2042;47.956;9.222;2023-11-18T04:06:50;2.10;36.20
4054;DHT22;2042;47.956;9.222;2023-11-18T04:09:16;2.10;36.20
4054;DHT22;2042;47.956;9.222;2023-11-18T04:11:42;2.20;36.30
4054;DHT22;2042;47.956;9.222;2023-11-18T04:14:11;2.20;36.40
4054;DHT22;2042;47.956;9.222;2023-11-18T04:16:37;2.20;36.40
4054;DHT22;2042;47.956;9.222;2023-11-18T04:19:06;2.20;36.40
4054;DHT22;2042;47.956;9.222;2023-11-18T04:21:32;2.30;36.50
4054;DHT22;2042;47.956;9.222;2023-11-18T04:23:57;2.30;36.60
4054;DHT22;2042;47.956;9.222;2023-11-18T04:26:23;2.20;36.40
4054;DHT22;2042;47.956;9.222;2023-11-18T04:28:50;2.20;36.40
4054;DHT22;2042;47.956;9.222;2023-11-18T04:31:15;2.20;36.40
4054;DHT22;2042;47.956;9.222;2023-11-18T04:33:41;2.20;36.40
4054;DHT22;2042;47.956;9.222;2023-11-18T04:36:08;2.20;36.40
4054;DHT22;2042;47.956;9.222;2023-11-18T04:38:35;2.20;36.40
4054;DHT22;2042;47.956;9.222;2023-11-18T04:41:01;2.30;36.50
4054;DHT22;2042;47.956;9.222;2023-11-18T04:43:29;2.30;36.50
4054;DHT22;2042;47.956;9.222;2023-11-18T04:45:54;2.40;36.60
4054;DHT22;2042;47.956;9.222;2023-11-18T04:48:20;2.40;36.70
4054;DHT22;2042;47.956;9.222;2023-11-18T04:50:46;2.40;36.70
4054;DHT22;2042;47.956;9.222;2023-11-18T04:53:12;2.40;36.70
4054;DHT22;2042;47.956;9.222;2023-11-18T04:55:38;2.40;36.70
4054;DHT22;2042;47.956;9.222;2023-11-18T04:58:05;2.40;36.70
4054;DHT22;2042;47.956;9.222;2023-11-18T05:00:32;2.40;36.80
4054;DHT22;2042;47.956;9.222;2023-11-18T05:02:58;2.40;36.70
4054;DHT22;2042;47.956;9.222;2023-11-18T05:05:24;2.40;36.70
4054;DHT22;2042;47.956;9.222;2023-11-18T05:07:49;2.40;36.70
4054;DHT22;2042;47.956;9.222;2023-11-18T05:10:15;2.40;36.70
4054;DHT22;2042;47.956;9.222;2023-11-18T05:12:41;2.40;36.70
4054;DHT22;2042;47.956;9.222;2023-11-18T05:15:09;2.40;36.80
4054;DHT22;2042;47.956;9.222;2023-11-18T05:17:36;2.50;36.80
4054;DHT22;2042;47.956;9.222;2023-11-18T05:20:03;2.50;36.80
4054;DHT22;2042;47.956;9.222;2023-11-18T05:22:29;2.50;36.80
4054;DHT22;2042;47.956;9.222;2023-11-18T05:24:57;2.50;36.80
4054;DHT22;2042;47.956;9.222;2023-11-18T05:27:22;2.40;36.70
4054;DHT22;2042;47.956;9.222;2023-11-18T05:29:48;2.50;36.80
4054;DHT22;2042;47.956;9.222;2023-11-18T05:32:20;2.50;36.80
4054;DHT22;2042;47.956;9.222;2023-11-18T05:34:51;2.50;36.80
4054;DHT22;2042;47.956;9.222;2023-11-18T05:37:20;2.40;36.70
4054;DHT22;2042;47.956;9.222;2023-11-18T05:39:46;2.40;36.70
4054;DHT22;2042;47.956;9.222;2023-11-18T05:42:12;2.40;36.70
4054;DHT22;2042;47.956;9.222;2023-11-18T05:44:38;2.40;36.70
4054;DHT22;2042;47.956;9.222;2023-11-18T05:47:05;2.50;36.70
4054;DHT22;2042;47.956;9.222;2023-11-18T05:49:35;2.50;36.70
4054;DHT22;2042;47.956;9.222;2023-11-18T05:52:01;2.50;36.70
4054;DHT22;2042;47.956;9.222;2023-11-18T05:54:26;2.60;36.80
4054;DHT22;2042;47.956;9.222;2023-11-18T05:56:52;2.60;36.90
4054;DHT22;2042;47.956;9.222;2023-11-18T05:59:19;2.60;36.90
4054;DHT22;2042;47.956;9.222;2023-11-18T06:01:45;2.60;36.90
4054;DHT22;2042;47.956;9.222;2023-11-18T06:04:13;2.60;36.90
4054;DHT22;2042;47.956;9.222;2023-11-18T06:06:38;2.60;36.90
4054;DHT22;2042;47.956;9.222;2023-11-18T06:09:04;2.60;36.90
4054;DHT22;2042;47.956;9.222;2023-11-18T06:11:34;2.60;36.90
4054;DHT22;2042;47.956;9.222;2023-11-18T06:14:01;2.60;36.80
4054;DHT22;2042;47.956;9.222;2023-11-18T06:16:27;2.60;36.90
4054;DHT22;2042;47.956;9.222;2023-11-18T06:18:57;2.60;36.90
4054;DHT22;2042;47.956;9.222;2023-11-18T06:21:24;2.50;36.80
4054;DHT22;2042;47.956;9.222;2023-11-18T06:23:53;2.50;36.70
4054;DHT22;2042;47.956;9.222;2023-11-18T06:26:20;2.50;36.80
4054;DHT22;2042;47.956;9.222;2023-11-18T06:28:46;2.50;36.80
4054;DHT22;2042;47.956;9.222;2023-11-18T06:31:11;2.50;36.80
4054;DHT22;2042;47.956;9.222;2023-11-18T06:33:38;2.50;36.80
4054;DHT22;2042;47.956;9.222;2023-11-18T06:36:04;2.50;36.70
4054;DHT22;2042;47.956;9.222;2023-11-18T06:38:30;2.60;36.70
4054;DHT22;2042;47.956;9.222;2023-11-18T06:40:56;2.60;36.70
4054;DHT22;2042;47.956;9.222;2023-11-18T06:43:21;2.60;36.80
4054;DHT22;2042;47.956;9.222;2023-11-18T06:45:47;2.70;36.90
4054;DHT22;2042;47.956;9.222;2023-11-18T06:48:14;2.70;36.90
4054;DHT22;2042;47.956;9.222;2023-11-18T06:50:40;2.60;36.80
4054;DHT22;2042;47.956;9.222;2023-11-18T06:53:09;2.70;36.90
4054;DHT22;2042;47.956;9.222;2023-11-18T06:55:36;2.70;36.90
4054;DHT22;2042;47.956;9.222;2023-11-18T06:58:02;2.70;36.80
4054;DHT22;2042;47.956;9.222;2023-11-18T07:00:28;2.70;36.90
4054;DHT22;2042;47.956;9.222;2023-11-18T07:02:54;2.70;36.80
4054;DHT22;2042;47.956;9.222;2023-11-18T07:05:20;2.70;36.70
4054;DHT22;2042;47.956;9.222;2023-11-18T07:07:52;2.80;36.70
4054;DHT22;2042;47.956;9.222;2023-11-18T07:10:17;2.80;37.00
4054;DHT22;2042;47.956;9.222;2023-11-18T07:12:46;2.80;36.90
4054;DHT22;2042;47.956;9.222;2023-11-18T07:15:13;2.90;36.80
4054;DHT22;2042;47.956;9.222;2023-11-18T07:17:39;3.00;36.80
4054;DHT22;2042;47.956;9.222;2023-11-18T07:20:06;3.10;36.80
4054;DHT22;2042;47.956;9.222;2023-11-18T07:22:31;3.20;36.90
4054;DHT22;2042;47.956;9.222;2023-11-18T07:24:57;3.30;37.20
4054;DHT22;2042;47.956;9.222;2023-11-18T07:27:23;3.30;37.40
4054;DHT22;2042;47.956;9.222;2023-11-18T07:29:48;3.30;37.30
4054;DHT22;2042;47.956;9.222;2023-11-18T07:32:14;3.40;37.20
4054;DHT22;2042;47.956;9.222;2023-11-18T07:34:39;3.50;37.20
4054;DHT22;2042;47.956;9.222;2023-11-18T07:37:06;3.60;37.50
4054;DHT22;2042;47.956;9.222;2023-11-18T07:39:33;3.60;37.80
4054;DHT22;2042;47.956;9.222;2023-11-18T07:42:14;3.50;37.70
4054;DHT22;2042;47.956;9.222;2023-11-18T07:44:40;3.60;37.60
4054;DHT22;2042;47.956;9.222;2023-11-18T07:47:06;3.60;37.60
4054;DHT22;2042;47.956;9.222;2023-11-18T07:49:32;3.60;37.50
4054;DHT22;2042;47.956;9.222;2023-11-18T07:51:57;3.60;37.50
4054;DHT22;2042;47.956;9.222;2023-11-18T07:54:23;3.70;37.40
4054;DHT22;2042;47.956;9.222;2023-11-18T07:56:49;3.80;37.40
4054;DHT22;2042;47.956;9.222;2023-11-18T07:59:16;3.90;37.40
4054;DHT22;2042;47.956;9.222;2023-11-18T08:01:43;4.00;37.20
4054;DHT22;2042;47.956;9.222;2023-11-18T08:04:09;4.20;37.30
4054;DHT22;2042;47.956;9.222;2023-11-18T08:06:35;4.40;37.10
4054;DHT22;2042;47.956;9.222;2023-11-18T08:09:01;4.60;37.00
4054;DHT22;2042;47.956;9.222;2023-11-18T08:11:28;4.70;37.30
4054;DHT22;2042;47.956;9.222;2023-11-18T08:13:54;4.70;37.90
4054;DHT22;2042;47.956;9.222;2023-11-18T08:16:20;4.80;38.00
4054;DHT22;2042;47.956;9.222;2023-11-18T08:18:47;4.90;37.70
4054;DHT22;2042;47.956;9.222;2023-11-18T08:21:13;5.10;37.60
4054;DHT22;2042;47.956;9.222;2023-11-18T08:23:39;5.20;37.80
4054;DHT22;2042;47.956;9.222;2023-11-18T08:26:05;5.30;38.40
4054;DHT22;2042;47.956;9.222;2023-11-18T08:28:31;5.40;38.60
4054;DHT22;2042;47.956;9.222;2023-11-18T08:30:56;5.40;39.30
4054;DHT22;2042;47.956;9.222;2023-11-18T08:33:22;5.20;39.90
4054;DHT22;2042;47.956;9.222;2023-11-18T08:35:49;5.20;40.00
4054;DHT22;2042;47.956;9.222;2023-11-18T08:38:16;5.30;39.70
4054;DHT22;2042;47.956;9.222;2023-11-18T08:40:41;5.40;39.80
4054;DHT22;2042;47.956;9.222;2023-11-18T08:43:08;5.50;39.80
4054;DHT22;2042;47.956;9.222;2023-11-18T08:45:33;5.50;40.40
4054;DHT22;2042;47.956;9.222;2023-11-18T08:48:00;5.40;40.60
4054;DHT22;2042;47.956;9.222;2023-11-18T08:50:33;5.40;40.90
4054;DHT22;2042;47.956;9.222;2023-11-18T08:52:59;5.30;41.10
4054;DHT22;2042;47.956;9.222;2023-11-18T08:55:28;5.20;41.10
4054;DHT22;2042;47.956;9.222;2023-11-18T08:58:10;5.30;41.50
4054;DHT22;2042;47.956;9.222;2023-11-18T09:00:46;5.50;40.60
4054;DHT22;2042;47.956;9.222;2023-11-18T09:03:13;5.60;40.90
4054;DHT22;2042;47.956;9.222;2023-11-18T09:06:08;5.60;41.20
4054;DHT22;2042;47.956;9.222;2023-11-18T09:08:43;5.70;41.40
4054;DHT22;2042;47.956;9.222;2023-11-18T09:11:13;5.80;41.20
4054;DHT22;2042;47.956;9.222;2023-11-18T09:13:42;5.90;41.70
4054;DHT22;2042;47.956;9.222;2023-11-18T09:16:08;6.00;41.80
4054;DHT22;2042;47.956;9.222;2023-11-18T09:18:35;6.00;42.10
4054;DHT22;2042;47.956;9.222;2023-11-18T09:21:01;6.00;42.30
4054;DHT22;2042;47.956;9.222;2023-11-18T09:23:29;6.20;42.10
4054;DHT22;2042;47.956;9.222;2023-11-18T09:25:55;6.30;42.50
4054;DHT22;2042;47.956;9.222;2023-11-18T09:28:21;6.40;42.60
4054;DHT22;2042;47.956;9.222;2023-11-18T09:30:49;6.60;42.70
4054;DHT22;2042;47.956;9.222;2023-11-18T09:33:23;6.80;43.30
4054;DHT22;2042;47.956;9.222;2023-11-18T09:38:31;6.60;44.40
4054;DHT22;2042;47.956;9.222;2023-11-18T09:40:59;6.60;44.60
4054;DHT22;2042;47.956;9.222;2023-11-18T09:43:32;6.50;44.60
4054;DHT22;2042;47.956;9.222;2023-11-18T09:46:06;6.40;44.50
4054;DHT22;2042;47.956;9.222;2023-11-18T09:48:51;6.30;44.40
4054;DHT22;2042;47.956;9.222;2023-11-18T09:51:26;6.30;44.40
4054;DHT22;2042;47.956;9.222;2023-11-18T09:54:00;6.20;44.00
4054;DHT22;2042;47.956;9.222;2023-11-18T09:59:16;6.00;43.20
4054;DHT22;2042;47.956;9.222;2023-11-18T10:01:47;6.00;43.60
4054;DHT22;2042;47.956;9.222;2023-11-18T10:04:19;6.10;44.20
4054;DHT22;2042;47.956;9.222;2023-11-18T10:06:46;6.40;44.80
4054;DHT22;2042;47.956;9.222;2023-11-18T10:09:13;6.40;44.80
4054;DHT22;2042;47.956;9.222;2023-11-18T10:11:44;6.60;45.30
4054;DHT22;2042;47.956;9.222;2023-11-18T10:14:13;6.80;45.70
4054;DHT22;2042;47.956;9.222;2023-11-18T10:16:43;7.00;46.00
4054;DHT22;2042;47.956;9.222;2023-11-18T10:19:12;7.10;45.90
4054;DHT22;2042;47.956;9.222;2023-11-18T10:21:40;7.10;45.20
4054;DHT22;2042;47.956;9.222;2023-11-18T10:24:06;7.00;43.90
4054;DHT22;2042;47.956;9.222;2023-11-18T10:26:43;6.90;44.20
4054;DHT22;2042;47.956;9.222;2023-11-18T10:29:13;6.90;43.20
4054;DHT22;2042;47.956;9.222;2023-11-18T10:31:40;6.90;43.00
4054;DHT22;2042;47.956;9.222;2023-11-18T10:34:12;6.80;42.50
4054;DHT22;2042;47.956;9.222;2023-11-18T10:36:41;6.90;42.70
4054;DHT22;2042;47.956;9.222;2023-11-18T10:39:11;6.90;42.60
4054;DHT22;2042;47.956;9.222;2023-11-18T10:41:40;7.00;40.90
4054;DHT22;2042;47.956;9.222;2023-11-18T10:44:09;7.00;41.00
4054;DHT22;2042;47.956;9.222;2023-11-18T10:46:41;7.10;39.90
4054;DHT22;2042;47.956;9.222;2023-11-18T10:49:06;7.20;40.00
4054;DHT22;2042;47.956;9.222;2023-11-18T10:51:35;7.40;40.70
4054;DHT22;2042;47.956;9.222;2023-11-18T10:54:04;7.60;39.50
4054;DHT22;2042;47.956;9.222;2023-11-18T10:56:32;7.50;32.80
4054;DHT22;2042;47.956;9.222;2023-11-18T10:58:58;7.30;30.00
4054;DHT22;2042;47.956;9.222;2023-11-18T11:01:28;7.40;30.20
4054;DHT22;2042;47.956;9.222;2023-11-18T11:03:54;7.40;31.00
4054;DHT22;2042;47.956;9.222;2023-11-18T11:06:26;7.40;29.60
4054;DHT22;2042;47.956;9.222;2023-11-18T11:08:57;7.50;28.00
4054;DHT22;2042;47.956;9.222;2023-11-18T11:11:31;7.60;30.30
4054;DHT22;2042;47.956;9.222;2023-11-18T11:14:03;7.80;31.40
4054;DHT22;2042;47.956;9.222;2023-11-18T11:16:44;8.00;30.50
4054;DHT22;2042;47.956;9.222;2023-11-18T11:19:26;8.10;27.80
4054;DHT22;2042;47.956;9.222;2023-11-18T11:22:04;8.00;23.50
4054;DHT22;2042;47.956;9.222;2023-11-18T11:27:33;7.90;20.20
4054;DHT22;2042;47.956;9.222;2023-11-18T11:30:23;7.90;20.20
4054;DHT22;2042;47.956;9.222;2023-11-18T11:33:16;8.00;20.50
4054;DHT22;2042;47.956;9.222;2023-11-18T11:35:48;8.10;17.80
4054;DHT22;2042;47.956;9.222;2023-11-18T11:38:15;8.10;12.60
4054;DHT22;2042;47.956;9.222;2023-11-18T11:40:43;8.00;8.60
4054;DHT22;2042;47.956;9.222;2023-11-18T11:43:11;8.00;9.20
4054;DHT22;2042;47.956;9.222;2023-11-18T11:45:41;8.20;11.50
4054;DHT22;2042;47.956;9.222;2023-11-18T11:48:09;8.40;12.20
4054;DHT22;2042;47.956;9.222;2023-11-18T11:53:25;8.80;5.80
4054;DHT22;2042;47.956;9.222;2023-11-18T11:55:53;9.00;3.10
4054;DHT22;2042;47.956;9.222;2023-11-18T11:58:29;9.20;1.50
4054;DHT22;2042;47.956;9.222;2023-11-18T12:01:00;9.40;1.00
4054;DHT22;2042;47.956;9.222;2023-11-18T12:03:26;9.60;1.00
4054;DHT22;2042;47.956;9.222;2023-11-18T12:05:55;9.80;1.00
4054;DHT22;2042;47.956;9.222;2023-11-18T12:08:24;10.10;1.00
4054;DHT22;2042;47.956;9.222;2023-11-18T12:10:54;10.30;1.00
4054;DHT22;2042;47.956;9.222;2023-11-18T12:13:20;10.50;1.00
4054;DHT22;2042;47.956;9.222;2023-11-18T12:15:54;10.30;1.00
4054;DHT22;2042;47.956;9.222;2023-11-18T12:18:21;10.30;1.00
4054;DHT22;2042;47.956;9.222;2023-11-18T12:20:47;10.10;1.00
4054;DHT22;2042;47.956;9.222;2023-11-18T12:23:16;9.90;1.00
4054;DHT22;2042;47.956;9.222;2023-11-18T12:25:47;9.70;1.00
4054;DHT22;2042;47.956;9.222;2023-11-18T12:28:32;9.60;1.00
4054;DHT22;2042;47.956;9.222;2023-11-18T12:31:11;9.60;1.00
4054;DHT22;2042;47.956;9.222;2023-11-18T12:42:05;9.30;1.00
4054;DHT22;2042;47.956;9.222;2023-11-18T12:44:44;9.10;1.00
4054;DHT22;2042;47.956;9.222;2023-11-18T12:47:20;8.90;1.00
4054;DHT22;2042;47.956;9.222;2023-11-18T12:49:48;8.60;1.00
4054;DHT22;2042;47.956;9.222;2023-11-18T12:52:21;8.20;1.00
4054;DHT22;2042;47.956;9.222;2023-11-18T12:54:48;7.90;1.00
4054;DHT22;2042;47.956;9.222;2023-11-18T12:57:20;7.60;1.00
4054;DHT22;2042;47.956;9.222;2023-11-18T12:59:48;7.50;1.00
4054;DHT22;2042;47.956;9.222;2023-11-18T13:02:15;7.40;1.00
4054;DHT22;2042;47.956;9.222;2023-11-18T13:04:45;7.30;1.00
4054;DHT22;2042;47.956;9.222;2023-11-18T13:07:16;7.20;1.00
4054;DHT22;2042;47.956;9.222;2023-11-18T13:09:47;7.10;1.00
4054;DHT22;2042;47.956;9.222;2023-11-18T13:12:14;7.00;1.00
4054;DHT22;2042;47.956;9.222;2023-11-18T13:14:45;7.00;1.00
4054;DHT22;2042;47.956;9.222;2023-11-18T13:17:13;7.00;1.00
4054;DHT22;2042;47.956;9.222;2023-11-18T13:19:42;6.90;1.00
4054;DHT22;2042;47.956;9.222;2023-11-18T13:22:11;6.80;1.00
4054;DHT22;2042;47.956;9.222;2023-11-18T13:24:38;6.80;1.00
4054;DHT22;2042;47.956;9.222;2023-11-18T13:27:06;6.80;1.00
4054;DHT22;2042;47.956;9.222;2023-11-18T13:29:36;6.70;1.00
4054;DHT22;2042;47.956;9.222;2023-11-18T13:32:06;6.70;1.00
4054;DHT22;2042;47.956;9.222;2023-11-18T13:34:33;6.70;1.00
4054;DHT22;2042;47.956;9.222;2023-11-18T13:37:02;6.60;1.00
4054;DHT22;2042;47.956;9.222;2023-11-18T13:39:28;6.60;1.00
4054;DHT22;2042;47.956;9.222;2023-11-18T13:41:57;6.60;1.00
4054;DHT22;2042;47.956;9.222;2023-11-18T13:44:36;6.60;1.00
4054;DHT22;2042;47.956;9.222;2023-11-18T13:47:05;6.60;1.00
4054;DHT22;2042;47.956;9.222;2023-11-18T13:49:34;6.50;1.00
4054;DHT22;2042;47.956;9.222;2023-11-18T13:52:00;6.50;1.00
4054;DHT22;2042;47.956;9.222;2023-11-18T13:54:29;6.50;1.00
4054;DHT22;2042;47.956;9.222;2023-11-18T13:57:02;6.50;1.00
4054;DHT22;2042;47.956;9.222;2023-11-18T13:59:29;6.50;1.00
4054;DHT22;2042;47.956;9.222;2023-11-18T14:01:55;6.40;1.00
4054;DHT22;2042;47.956;9.222;2023-11-18T14:04:28;6.20;1.00
4054;DHT22;2042;47.956;9.222;2023-11-18T14:06:58;6.10;1.00
4054;DHT22;2042;47.956;9.222;2023-11-18T14:09:35;5.90;1.00
4054;DHT22;2042;47.956;9.222;2023-11-18T14:12:10;5.90;1.00
4054;DHT22;2042;47.956;9.222;2023-11-18T14:14:36;5.90;1.00
4054;DHT22;2042;47.956;9.222;2023-11-18T14:17:03;6.00;1.00
4054;DHT22;2042;47.956;9.222;2023-11-18T14:19:31;6.00;1.00
4054;DHT22;2042;47.956;9.222;2023-11-18T14:21:57;6.00;1.00
4054;DHT22;2042;47.956;9.222;2023-11-18T14:24:23;5.90;1.00
4054;DHT22;2042;47.956;9.222;2023-11-18T14:26:54;5.90;1.00
4054;DHT22;2042;47.956;9.222;2023-11-18T14:29:20;5.80;1.00
4054;DHT22;2042;47.956;9.222;2023-11-18T14:31:46;5.80;1.00
4054;DHT22;2042;47.956;9.222;2023-11-18T14:34:13;5.80;1.00
4054;DHT22;2042;47.956;9.222;2023-11-18T14:36:39;5.80;1.00
4054;DHT22;2042;47.956;9.222;2023-11-18T14:39:06;5.80;1.00
4054;DHT22;2042;47.956;9.222;2023-11-18T14:41:36;5.80;1.00
4054;DHT22;2042;47.956;9.222;2023-11-18T14:44:02;5.70;1.00
4054;DHT22;2042;47.956;9.222;2023-11-18T14:46:30;5.60;1.00
4054;DHT22;2042;47.956;9.222;2023-11-18T14:49:00;5.60;1.00
4054;DHT22;2042;47.956;9.222;2023-11-18T14:51:26;5.50;1.00
4054;DHT22;2042;47.956;9.222;2023-11-18T14:53:52;5.50;1.00
4054;DHT22;2042;47.956;9.222;2023-11-18T14:56:18;5.50;1.00
4054;DHT22;2042;47.956;9.222;2023-11-18T14:58:45;5.50;1.00
4054;DHT22;2042;47.956;9.222;2023-11-18T15:01:17;5.50;1.00
4054;DHT22;2042;47.956;9.222;2023-11-18T15:03:46;5.50;1.00
4054;DHT22;2042;47.956;9.222;2023-11-18T15:06:12;5.50;1.00
4054;DHT22;2042;47.956;9.222;2023-11-18T15:08:38;5.50;1.00
4054;DHT22;2042;47.956;9.222;2023-11-18T15:11:07;5.40;1.00
4054;DHT22;2042;47.956;9.222;2023-11-18T15:13:35;5.40;1.00
4054;DHT22;2042;47.956;9.222;2023-11-18T15:16:01;5.40;1.00
4054;DHT22;2042;47.956;9.222;2023-11-18T15:18:29;5.30;1.00
4054;DHT22;2042;47.956;9.222;2023-11-18T15:20:58;5.20;1.00
4054;DHT22;2042;47.956;9.222;2023-11-18T15:23:24;5.10;1.00
4054;DHT22;2042;47.956;9.222;2023-11-18T15:25:51;5.00;1.00
4054;DHT22;2042;47.956;9.222;2023-11-18T15:28:17;4.90;1.00
4054;DHT22;2042;47.956;9.222;2023-11-18T15:30:44;4.80;1.00
4054;DHT22;2042;47.956;9.222;2023-11-18T15:33:10;4.80;1.00
4054;DHT22;2042;47.956;9.222;2023-11-18T15:35:39;4.70;2.30
4054;DHT22;2042;47.956;9.222;2023-11-18T15:38:07;4.70;2.90
4054;DHT22;2042;47.956;9.222;2023-11-18T15:40:36;4.60;4.10
4054;DHT22;2042;47.956;9.222;2023-11-18T15:43:03;4.60;5.40
4054;DHT22;2042;47.956;9.222;2023-11-18T15:45:31;4.60;6.40
4054;DHT22;2042;47.956;9.222;2023-11-18T15:47:58;4.60;7.90
4054;DHT22;2042;47.956;9.222;2023-11-18T15:50:34;4.60;9.00
4054;DHT22;2042;47.956;9.222;2023-11-18T15:53:03;4.60;10.30
4054;DHT22;2042;47.956;9.222;2023-11-18T15:55:29;4.50;11.20
4054;DHT22;2042;47.956;9.222;2023-11-18T15:57:55;4.50;12.20
4054;DHT22;2042;47.956;9.222;2023-11-18T16:00:25;4.50;13.70
4054;DHT22;2042;47.956;9.222;2023-11-18T16:02:53;4.50;14.20
4054;DHT22;2042;47.956;9.222;2023-11-18T16:05:20;4.50;15.40
4054;DHT22;2042;47.956;9.222;2023-11-18T16:07:50;4.40;16.20
4054;DHT22;2042;47.956;9.222;2023-11-18T16:10:23;4.40;17.30
4054;DHT22;2042;47.956;9.222;2023-11-18T16:12:50;4.40;18.20
4054;DHT22;2042;47.956;9.222;2023-11-18T16:15:21;4.40;19.30
4054;DHT22;2042;47.956;9.222;2023-11-18T16:17:48;4.40;20.50
4054;DHT22;2042;47.956;9.222;2023-11-18T16:20:17;4.40;21.10
4054;DHT22;2042;47.956;9.222;2023-11-18T16:22:44;4.40;21.30
4054;DHT22;2042;47.956;9.222;2023-11-18T16:25:17;4.40;22.10
4054;DHT22;2042;47.956;9.222;2023-11-18T16:27:44;4.40;22.90
4054;DHT22;2042;47.956;9.222;2023-11-18T16:30:11;4.50;23.80
4054;DHT22;2042;47.956;9.222;2023-11-18T16:32:37;4.50;24.30
4054;DHT22;2042;47.956;9.222;2023-11-18T16:35:03;4.50;24.80
4054;DHT22;2042;47.956;9.222;2023-11-18T16:37:29;4.50;25.30
4054;DHT22;2042;47.956;9.222;2023-11-18T16:39:54;4.50;25.60
4054;DHT22;2042;47.956;9.222;2023-11-18T16:42:20;4.40;25.90
4054;DHT22;2042;47.956;9.222;2023-11-18T16:44:52;4.40;26.40
4054;DHT22;2042;47.956;9.222;2023-11-18T16:47:21;4.40;27.40